Time;durP1;ratioP1;P1;durP2;ratioP2;P2;SDS_P1;SDS_P2;PMS_P1;PMS_P2;Temp;Humidity;BMP_temperature;BMP_pressure;BME280_temperature;BME280_humidity;BME280_pressure;Samples;Min_cycle;Max_cycle;Signal;HPM_P1;HPM_P2
2021/09/09 00:00:52;;;;;;;;;;;;;;;;;;2089332;28;43976;-74
2021/09/09 00:01:54;;;;;;;;;;;;;;;;;;2089246;28;45162;-74
2021/09/09 00:02:55;;;;;;;;;;;;;;;;;;2089903;28;46753;-74
2021/09/09 00:03:59;;;;;;;;;;;;;;;;;;2088977;28;45569;-73
2021/09/09 00:05:00;;;;;;;;;;;;;;;;;;2089697;28;45155;-74
2021/09/09 00:06:02;;;;;;;;;;;;;;;;;;2095131;28;45302;-73
2021/09/09 00:07:03;;;;;;;;;;;;;;;;;;2097723;28;44101;-74
2021/09/09 00:08:05;;;;;;;;;;;;;;;;;;2098136;28;46541;-73
2021/09/09 00:09:06;;;;;;;;;;;;;;;;;;2097660;28;44137;-73
2021/09/09 00:10:08;;;;;;;;;;;;;;;;;;2097669;28;46310;-74
2021/09/09 00:11:10;;;;;;;;;;;;;;;;;;2098266;28;46468;-74
2021/09/09 00:12:11;;;;;;;;;;;;;;;;;;2097986;28;45297;-73
2021/09/09 00:13:13;;;;;;;;;;;;;;;;;;2097643;28;44026;-74
2021/09/09 00:14:14;;;;;;;;;;;;;;;;;;2097578;28;46532;-75
2021/09/09 00:15:16;;;;;;;;;;;;;;;;;;2097314;28;48167;-76
2021/09/09 00:16:17;;;;;;;;;;;;;;;;;;2097871;28;45283;-74
2021/09/09 00:17:19;;;;;;;;;;;;;;;;;;2097599;28;46947;-75
2021/09/09 00:18:20;;;;;;;;;;;;;;;;;;2089539;28;45316;-75
2021/09/09 00:19:21;;;;;;;;;;;;;;;;;;2097495;28;45387;-77
2021/09/09 00:20:23;;;;;;;;;;;;;;;;;;2090018;28;45008;-74
2021/09/09 00:21:24;;;;;;;;;;;;;;;;;;2089252;28;45282;-75
2021/09/09 00:22:26;;;;;;;;;;;;;;;;;;2089560;28;43744;-76
2021/09/09 00:23:27;;;;;;;;;;;;;;;;;;2097518;28;45517;-74
2021/09/09 00:24:29;;;;;;;;;;;;;;;;;;2105654;28;45414;-75
2021/09/09 00:25:30;;;;;;;;;;;;;;;;;;2089264;28;46503;-75
2021/09/09 00:26:31;;;;;;;;;;;;;;;;;;2081064;28;44354;-75
2021/09/09 00:27:33;;;;;;;;;;;;;;;;;;2089168;28;45458;-75
2021/09/09 00:28:34;;;;;;;;;;;;;;;;;;2089859;28;46449;-75
2021/09/09 00:29:36;;;;;;;;;;;;;;;;;;2097619;28;46470;-76
2021/09/09 00:30:37;;;;;;;;;;;;;;;;;;2089251;28;46672;-75
2021/09/09 00:31:39;;;;;;;;;;;;;;;;;;2089143;28;45272;-76
2021/09/09 00:32:40;;;;;;;;;;;;;;;;;;2089344;28;44551;-74
2021/09/09 00:33:44;;;;;;;;;;;;;;;;;;2080972;28;45299;-74
2021/09/09 00:34:45;;;;;;;;;;;;;;;;;;2089171;28;44218;-73
2021/09/09 00:35:47;;;;;;;;;;;;;;;;;;2089238;28;45439;-74
2021/09/09 00:36:48;;;;;;;;;;;;;;;;;;2089585;28;45322;-73
2021/09/09 00:37:49;;;;;;;;;;;;;;;;;;2089121;28;45394;-74
2021/09/09 00:38:51;;;;;;;;;;;;;;;;;;2092269;28;43968;-74
2021/09/09 00:39:52;;;;;;;;;;;;;;;;;;2097880;28;45410;-75
2021/09/09 00:40:54;;;;;;;;;;;;;;;;;;2089067;28;46089;-74
2021/09/09 00:41:55;;;;;;;;;;;;;;;;;;2106081;28;46866;-75
2021/09/09 00:42:57;;;;;;;;;;;;;;;;;;2114100;28;45809;-74
2021/09/09 00:43:59;;;;;;;;;;;;;;;;;;2097305;28;44538;-75
2021/09/09 00:45:00;;;;;;;;;;;;;;;;;;2097568;28;42429;-76
2021/09/09 00:46:02;;;;;;;;;;;;;;;;;;2097369;28;47331;-76
2021/09/09 00:47:05;;;;;;;;;;;;;;;;;;2097529;28;46908;-75
2021/09/09 00:48:06;;;;;;;;;;;;;;;;;;2097334;28;47033;-76
2021/09/09 00:49:08;;;;;;;;;;;;;;;;;;2097431;28;45870;-76
2021/09/09 00:50:09;;;;;;;;;;;;;;;;;;2106105;28;44078;-75
2021/09/09 00:51:11;;;;;;;;;;;;;;;;;;2113952;28;47241;-76
2021/09/09 00:52:14;;;;;;;;;;;;;;;;;;2099238;28;14753;-76
2021/09/09 00:53:16;;;;;;;;;;;;;;;;;;2097914;28;45850;-75
2021/09/09 00:54:18;;;;;;;;;;;;;;;;;;2098089;28;45939;-75
2021/09/09 00:55:19;;;;;;;;;;;;;;;;;;2095372;28;45841;-75
2021/09/09 00:56:21;;;;;;;;;;;;;;;;;;2088981;28;44861;-75
2021/09/09 00:57:23;;;;;;;;;;;;;;;;;;2089670;28;46253;-74
2021/09/09 00:58:25;;;;;;;;;;;;;;;;;;2088759;28;45334;-76
2021/09/09 00:59:27;;;;;;;;;;;;;;;;;;2080815;28;48719;-76
2021/09/09 01:00:29;;;;;;;;;;;;;;;;;;2081067;28;47329;-75
2021/09/09 01:01:30;;;;;;;;;;;;;;;;;;2088927;28;47050;-74
2021/09/09 01:02:32;;;;;;;;;;;;;;;;;;2089405;28;47075;-73
2021/09/09 01:03:34;;;;;;;;;;;;;;;;;;2088430;28;43838;-73
2021/09/09 01:04:36;;;;;;;;;;;;;;;;;;2097205;28;45041;-71
2021/09/09 01:05:38;;;;;;;;;;;;;;;;;;2096538;28;45267;-71
2021/09/09 01:06:40;;;;;;;;;;;;;;;;;;2105607;28;46493;-72
2021/09/09 01:07:41;;;;;;;;;;;;;;;;;;2105092;28;43924;-72
2021/09/09 01:08:43;;;;;;;;;;;;;;;;;;2088919;28;45314;-72
2021/09/09 01:09:44;;;;;;;;;;;;;;;;;;2080713;28;46585;-72
2021/09/09 01:10:46;;;;;;;;;;;;;;;;;;2089055;28;43616;-72
2021/09/09 01:11:47;;;;;;;;;;;;;;;;;;2089485;28;43948;-72
2021/09/09 01:12:49;;;;;;;;;;;;;;;;;;2088780;28;45579;-72
2021/09/09 01:13:51;;;;;;;;;;;;;;;;;;2088438;28;47991;-72
2021/09/09 01:14:52;;;;;;;;;;;;;;;;;;2097221;28;45461;-72
2021/09/09 01:15:54;;;;;;;;;;;;;;;;;;2096589;28;45284;-72
2021/09/09 01:16:55;;;;;;;;;;;;;;;;;;2097154;28;44322;-73
2021/09/09 01:17:57;;;;;;;;;;;;;;;;;;2097512;28;45284;-71
2021/09/09 01:18:58;;;;;;;;;;;;;;;;;;2097022;28;45796;-72
2021/09/09 01:20:00;;;;;;;;;;;;;;;;;;2097122;28;45076;-72
2021/09/09 01:21:02;;;;;;;;;;;;;;;;;;2097046;28;44378;-72
2021/09/09 01:22:04;;;;;;;;;;;;;;;;;;2089024;28;44143;-72
2021/09/09 01:23:06;;;;;;;;;;;;;;;;;;2097067;28;45451;-72
2021/09/09 01:24:08;;;;;;;;;;;;;;;;;;2096998;28;45111;-73
2021/09/09 01:25:10;;;;;;;;;;;;;;;;;;2088761;28;46958;-72
2021/09/09 01:26:11;;;;;;;;;;;;;;;;;;2088864;28;46810;-72
2021/09/09 01:27:16;;;;;;;;;;;;;;;;;;2097040;28;44282;-72
2021/09/09 01:28:18;;;;;;;;;;;;;;;;;;2097111;28;42360;-72
2021/09/09 01:29:21;;;;;;;;;;;;;;;;;;2097700;28;45537;-72
2021/09/09 01:30:22;;;;;;;;;;;;;;;;;;2096664;28;45501;-72
2021/09/09 01:31:24;;;;;;;;;;;;;;;;;;2097165;28;43178;-72
2021/09/09 01:32:25;;;;;;;;;;;;;;;;;;2096986;28;46206;-71
2021/09/09 01:33:27;;;;;;;;;;;;;;;;;;2096765;28;45488;-73
2021/09/09 01:34:28;;;;;;;;;;;;;;;;;;2097733;28;45343;-71
2021/09/09 01:35:30;;;;;;;;;;;;;;;;;;2096647;28;46429;-72
2021/09/09 01:36:32;;;;;;;;;;;;;;;;;;2096963;28;45387;-72
2021/09/09 01:37:34;;;;;;;;;;;;;;;;;;2105190;28;46789;-72
2021/09/09 01:38:35;;;;;;;;;;;;;;;;;;2104694;28;45316;-71
2021/09/09 01:39:47;;;;;;;;;;;;;;;;;;2096733;28;45433;-71
2021/09/09 01:40:49;;;;;;;;;;;;;;;;;;2097584;28;44134;-71
2021/09/09 01:41:54;;;;;;;;;;;;;;;;;;2097032;28;45513;-71
2021/09/09 01:42:56;;;;;;;;;;;;;;;;;;2097129;28;45325;-71
2021/09/09 01:43:57;;;;;;;;;;;;;;;;;;2096315;28;44104;-71
2021/09/09 01:44:58;;;;;;;;;;;;;;;;;;2097206;28;45389;-71
2021/09/09 01:46:00;;;;;;;;;;;;;;;;;;2089092;28;45409;-71
2021/09/09 01:47:01;;;;;;;;;;;;;;;;;;2097242;28;45684;-72
2021/09/09 01:48:03;;;;;;;;;;;;;;;;;;2096891;28;45744;-72
2021/09/09 01:49:04;;;;;;;;;;;;;;;;;;2097795;28;45822;-72
2021/09/09 01:50:06;;;;;;;;;;;;;;;;;;2097994;28;43903;-72
2021/09/09 01:51:08;;;;;;;;;;;;;;;;;;2089349;28;45255;-73
2021/09/09 01:52:09;;;;;;;;;;;;;;;;;;2089788;28;45829;-74
2021/09/09 01:53:10;;;;;;;;;;;;;;;;;;2098327;28;45910;-73
2021/09/09 01:54:12;;;;;;;;;;;;;;;;;;2097774;28;46129;-73
2021/09/09 01:55:13;;;;;;;;;;;;;;;;;;2098032;28;45874;-73
2021/09/09 01:56:15;;;;;;;;;;;;;;;;;;2098016;28;47289;-73
2021/09/09 01:57:17;;;;;;;;;;;;;;;;;;2097721;28;46141;-73
2021/09/09 01:58:18;;;;;;;;;;;;;;;;;;2097698;28;45915;-73
2021/09/09 01:59:19;;;;;;;;;;;;;;;;;;2098946;28;45848;-73
2021/09/09 02:00:21;;;;;;;;;;;;;;;;;;2098741;28;45876;-73
2021/09/09 02:01:23;;;;;;;;;;;;;;;;;;2098336;28;45841;-73
2021/09/09 02:02:25;;;;;;;;;;;;;;;;;;2097871;28;46121;-73
2021/09/09 02:03:27;;;;;;;;;;;;;;;;;;2097712;28;47271;-73
2021/09/09 02:04:29;;;;;;;;;;;;;;;;;;2097174;28;45887;-73
2021/09/09 02:05:30;;;;;;;;;;;;;;;;;;2097840;28;47172;-73
2021/09/09 02:06:33;;;;;;;;;;;;;;;;;;2096793;28;45878;-73
2021/09/09 02:07:34;;;;;;;;;;;;;;;;;;2088763;28;47060;-72
2021/09/09 02:08:36;;;;;;;;;;;;;;;;;;2097289;28;44744;-72
2021/09/09 02:09:37;;;;;;;;;;;;;;;;;;2097675;28;45256;-72
2021/09/09 02:10:38;;;;;;;;;;;;;;;;;;2097990;28;45329;-73
2021/09/09 02:11:40;;;;;;;;;;;;;;;;;;2098834;28;43560;-73
2021/09/09 02:12:41;;;;;;;;;;;;;;;;;;2098328;28;46907;-73
2021/09/09 02:13:43;;;;;;;;;;;;;;;;;;2098171;28;43193;-73
2021/09/09 02:14:44;;;;;;;;;;;;;;;;;;2106962;28;43049;-73
2021/09/09 02:15:45;;;;;;;;;;;;;;;;;;2098439;28;45472;-73
2021/09/09 02:16:47;;;;;;;;;;;;;;;;;;2098171;28;42717;-73
2021/09/09 02:17:48;;;;;;;;;;;;;;;;;;2098389;28;43493;-73
2021/09/09 02:18:50;;;;;;;;;;;;;;;;;;2098229;28;45926;-73
2021/09/09 02:19:51;;;;;;;;;;;;;;;;;;2098568;28;43644;-73
2021/09/09 02:20:53;;;;;;;;;;;;;;;;;;2097962;28;46294;-73
2021/09/09 02:21:54;;;;;;;;;;;;;;;;;;2098313;28;45792;-73
2021/09/09 02:22:55;;;;;;;;;;;;;;;;;;2098142;28;45323;-74
2021/09/09 02:23:57;;;;;;;;;;;;;;;;;;2106387;28;44010;-73
2021/09/09 02:24:58;;;;;;;;;;;;;;;;;;2098246;28;45298;-73
2021/09/09 02:26:00;;;;;;;;;;;;;;;;;;2098259;28;47001;-72
2021/09/09 02:27:01;;;;;;;;;;;;;;;;;;2106733;28;45299;-74
2021/09/09 02:28:03;;;;;;;;;;;;;;;;;;2092715;28;43353;-73
2021/09/09 02:29:04;;;;;;;;;;;;;;;;;;2089909;28;46514;-73
2021/09/09 02:30:06;;;;;;;;;;;;;;;;;;2099035;28;43632;-73
2021/09/09 02:31:07;;;;;;;;;;;;;;;;;;2097855;28;46912;-73
2021/09/09 02:32:09;;;;;;;;;;;;;;;;;;2090548;28;44125;-75
2021/09/09 02:33:10;;;;;;;;;;;;;;;;;;2090686;28;46031;-75
2021/09/09 02:34:12;;;;;;;;;;;;;;;;;;2089949;28;46635;-73
2021/09/09 02:35:14;;;;;;;;;;;;;;;;;;2089821;28;44244;-74
2021/09/09 02:36:15;;;;;;;;;;;;;;;;;;2098105;28;45376;-73
2021/09/09 02:37:16;;;;;;;;;;;;;;;;;;2090354;28;44091;-73
2021/09/09 02:38:18;;;;;;;;;;;;;;;;;;2089780;28;43992;-73
2021/09/09 02:39:19;;;;;;;;;;;;;;;;;;2095795;28;45362;-73
2021/09/09 02:40:21;;;;;;;;;;;;;;;;;;2098046;28;45240;-74
2021/09/09 02:41:22;;;;;;;;;;;;;;;;;;2098247;28;45423;-73
2021/09/09 02:42:23;;;;;;;;;;;;;;;;;;2106682;28;45396;-73
2021/09/09 02:43:25;;;;;;;;;;;;;;;;;;2114513;28;45418;-73
2021/09/09 02:44:26;;;;;;;;;;;;;;;;;;2097633;28;45611;-73
2021/09/09 02:45:28;;;;;;;;;;;;;;;;;;2089984;28;43199;-74
2021/09/09 02:46:29;;;;;;;;;;;;;;;;;;2098123;28;45435;-74
2021/09/09 02:47:30;;;;;;;;;;;;;;;;;;2098068;28;46766;-71
2021/09/09 02:48:32;;;;;;;;;;;;;;;;;;2098003;28;47230;-72
2021/09/09 02:49:33;;;;;;;;;;;;;;;;;;2098167;28;46506;-72
2021/09/09 02:50:35;;;;;;;;;;;;;;;;;;2097809;28;45339;-73
2021/09/09 02:51:36;;;;;;;;;;;;;;;;;;2098038;28;45640;-72
2021/09/09 02:52:38;;;;;;;;;;;;;;;;;;2097642;28;43054;-72
2021/09/09 02:53:39;;;;;;;;;;;;;;;;;;2097411;28;46181;-72
2021/09/09 02:54:42;;;;;;;;;;;;;;;;;;2097623;28;45721;-72
2021/09/09 02:55:43;;;;;;;;;;;;;;;;;;2090023;28;45857;-72
2021/09/09 02:56:45;;;;;;;;;;;;;;;;;;2089575;28;46432;-72
2021/09/09 02:57:46;;;;;;;;;;;;;;;;;;2089238;28;45876;-73
2021/09/09 02:58:47;;;;;;;;;;;;;;;;;;2089701;28;47264;-72
2021/09/09 02:59:49;;;;;;;;;;;;;;;;;;2089837;28;42852;-71
2021/09/09 03:00:50;;;;;;;;;;;;;;;;;;2089609;28;42457;-72
2021/09/09 03:01:52;;;;;;;;;;;;;;;;;;2097960;28;46191;-73
2021/09/09 03:02:54;;;;;;;;;;;;;;;;;;2098070;28;47683;-73
2021/09/09 03:03:55;;;;;;;;;;;;;;;;;;2089872;28;45900;-73
2021/09/09 03:04:57;;;;;;;;;;;;;;;;;;2089174;28;46131;-73
2021/09/09 03:05:58;;;;;;;;;;;;;;;;;;2089810;28;47233;-72
2021/09/09 03:06:59;;;;;;;;;;;;;;;;;;2098073;28;45957;-75
2021/09/09 03:08:01;;;;;;;;;;;;;;;;;;2089770;28;44599;-73
2021/09/09 03:09:02;;;;;;;;;;;;;;;;;;2089569;28;46902;-74
2021/09/09 03:10:06;;;;;;;;;;;;;;;;;;2089765;28;44625;-73
2021/09/09 03:11:07;;;;;;;;;;;;;;;;;;2097801;28;46224;-75
2021/09/09 03:12:09;;;;;;;;;;;;;;;;;;2098697;28;44569;-74
2021/09/09 03:13:10;;;;;;;;;;;;;;;;;;2098017;28;45787;-73
2021/09/09 03:14:12;;;;;;;;;;;;;;;;;;2098370;28;44102;-72
2021/09/09 03:15:13;;;;;;;;;;;;;;;;;;2089605;28;43527;-72
2021/09/09 03:16:14;;;;;;;;;;;;;;;;;;2097960;28;45320;-71
2021/09/09 03:17:16;;;;;;;;;;;;;;;;;;2098024;28;44368;-74
2021/09/09 03:18:17;;;;;;;;;;;;;;;;;;2097926;28;46483;-73
2021/09/09 03:19:19;;;;;;;;;;;;;;;;;;2098033;28;46176;-75
2021/09/09 03:20:20;;;;;;;;;;;;;;;;;;2097978;28;46605;-73
2021/09/09 03:21:22;;;;;;;;;;;;;;;;;;2097659;28;46664;-76
2021/09/09 03:22:23;;;;;;;;;;;;;;;;;;2089924;28;45103;-74
2021/09/09 03:23:24;;;;;;;;;;;;;;;;;;2097786;28;45424;-76
2021/09/09 03:24:26;;;;;;;;;;;;;;;;;;2097800;28;46517;-74
2021/09/09 03:25:27;;;;;;;;;;;;;;;;;;2098415;28;43178;-75
2021/09/09 03:26:29;;;;;;;;;;;;;;;;;;2098135;28;45274;-73
2021/09/09 03:27:30;;;;;;;;;;;;;;;;;;2098093;28;45225;-76
2021/09/09 03:28:32;;;;;;;;;;;;;;;;;;2097919;28;48546;-73
2021/09/09 03:29:33;;;;;;;;;;;;;;;;;;2097946;28;43755;-74
2021/09/09 03:30:35;;;;;;;;;;;;;;;;;;2097996;28;44173;-75
2021/09/09 03:31:36;;;;;;;;;;;;;;;;;;2098008;28;43085;-75
2021/09/09 03:32:38;;;;;;;;;;;;;;;;;;2097910;28;45910;-75
2021/09/09 03:33:39;;;;;;;;;;;;;;;;;;2089323;28;44767;-75
2021/09/09 03:34:40;;;;;;;;;;;;;;;;;;2098015;28;44180;-75
2021/09/09 03:35:42;;;;;;;;;;;;;;;;;;2089469;28;45633;-75
2021/09/09 03:36:43;;;;;;;;;;;;;;;;;;2089719;28;46691;-75
2021/09/09 03:37:45;;;;;;;;;;;;;;;;;;2089445;28;45686;-75
2021/09/09 03:38:46;;;;;;;;;;;;;;;;;;2089507;28;45356;-75
2021/09/09 03:39:47;;;;;;;;;;;;;;;;;;2089489;28;46673;-75
2021/09/09 03:40:49;;;;;;;;;;;;;;;;;;2098044;28;45362;-75
2021/09/09 03:41:50;;;;;;;;;;;;;;;;;;2106296;28;45666;-75
2021/09/09 03:42:52;;;;;;;;;;;;;;;;;;2097909;28;45406;-75
2021/09/09 03:43:53;;;;;;;;;;;;;;;;;;2089982;28;44076;-75
2021/09/09 03:44:55;;;;;;;;;;;;;;;;;;2089323;28;46853;-75
2021/09/09 03:45:56;;;;;;;;;;;;;;;;;;2089577;28;44348;-75
2021/09/09 03:46:58;;;;;;;;;;;;;;;;;;2090108;28;46433;-75
2021/09/09 03:47:59;;;;;;;;;;;;;;;;;;2089381;28;43889;-75
2021/09/09 03:49:01;;;;;;;;;;;;;;;;;;2089462;28;45633;-74
2021/09/09 03:50:02;;;;;;;;;;;;;;;;;;2089653;28;43905;-75
2021/09/09 03:51:04;;;;;;;;;;;;;;;;;;2096073;28;46390;-74
2021/09/09 03:52:06;;;;;;;;;;;;;;;;;;2097878;28;46638;-75
2021/09/09 03:53:07;;;;;;;;;;;;;;;;;;2097724;28;46590;-74
2021/09/09 03:54:08;;;;;;;;;;;;;;;;;;2106602;28;43702;-74
2021/09/09 03:55:10;;;;;;;;;;;;;;;;;;2106229;28;45171;-74
2021/09/09 03:56:11;;;;;;;;;;;;;;;;;;2089695;28;45474;-74
2021/09/09 03:57:13;;;;;;;;;;;;;;;;;;2106681;28;46512;-76
2021/09/09 03:58:14;;;;;;;;;;;;;;;;;;2106240;28;45179;-75
2021/09/09 03:59:15;;;;;;;;;;;;;;;;;;2097546;28;47224;-74
2021/09/09 04:00:17;;;;;;;;;;;;;;;;;;2097816;28;47001;-75
2021/09/09 04:01:19;;;;;;;;;;;;;;;;;;2106180;28;44357;-75
2021/09/09 04:02:20;;;;;;;;;;;;;;;;;;2114492;28;46496;-74
2021/09/09 04:03:22;;;;;;;;;;;;;;;;;;2097741;28;44390;-74
2021/09/09 04:04:23;;;;;;;;;;;;;;;;;;2097861;28;46164;-75
2021/09/09 04:05:25;;;;;;;;;;;;;;;;;;2106262;28;45874;-74
2021/09/09 04:06:26;;;;;;;;;;;;;;;;;;2114442;28;48639;-74
2021/09/09 04:07:28;;;;;;;;;;;;;;;;;;2097747;28;45826;-76
2021/09/09 04:08:29;;;;;;;;;;;;;;;;;;2089291;28;46214;-73
2021/09/09 04:09:30;;;;;;;;;;;;;;;;;;2098074;28;44313;-76
2021/09/09 04:10:32;;;;;;;;;;;;;;;;;;2089539;28;43721;-74
2021/09/09 04:11:35;;;;;;;;;;;;;;;;;;2106455;28;46906;-75
2021/09/09 04:12:37;;;;;;;;;;;;;;;;;;2114260;28;45918;-74
2021/09/09 04:13:38;;;;;;;;;;;;;;;;;;2098501;28;45976;-75
2021/09/09 04:14:40;;;;;;;;;;;;;;;;;;2098438;28;46975;-76
2021/09/09 04:15:41;;;;;;;;;;;;;;;;;;2097636;28;47378;-74
2021/09/09 04:16:43;;;;;;;;;;;;;;;;;;2097799;28;44515;-74
2021/09/09 04:17:44;;;;;;;;;;;;;;;;;;2097572;28;46184;-74
2021/09/09 04:18:46;;;;;;;;;;;;;;;;;;2097665;28;46198;-73
2021/09/09 04:19:47;;;;;;;;;;;;;;;;;;2106396;28;45803;-76
2021/09/09 04:20:48;;;;;;;;;;;;;;;;;;2114253;28;43468;-75
2021/09/09 04:21:51;;;;;;;;;;;;;;;;;;2098350;28;45359;-75
2021/09/09 04:22:52;;;;;;;;;;;;;;;;;;2098594;28;43283;-75
2021/09/09 04:23:53;;;;;;;;;;;;;;;;;;2097724;28;46346;-75
2021/09/09 04:24:55;;;;;;;;;;;;;;;;;;2097611;28;45206;-75
2021/09/09 04:25:56;;;;;;;;;;;;;;;;;;2089138;28;45355;-75
2021/09/09 04:26:58;;;;;;;;;;;;;;;;;;2097667;28;46710;-75
2021/09/09 04:27:59;;;;;;;;;;;;;;;;;;2106048;28;46384;-75
2021/09/09 04:29:01;;;;;;;;;;;;;;;;;;2105939;28;45132;-75
2021/09/09 04:30:02;;;;;;;;;;;;;;;;;;2097553;28;46340;-75
2021/09/09 04:31:04;;;;;;;;;;;;;;;;;;2097758;28;45001;-76
2021/09/09 04:32:06;;;;;;;;;;;;;;;;;;2097628;28;45134;-77
2021/09/09 04:33:07;;;;;;;;;;;;;;;;;;2097397;28;45241;-77
2021/09/09 04:34:09;;;;;;;;;;;;;;;;;;2097980;28;46399;-77
2021/09/09 04:35:10;;;;;;;;;;;;;;;;;;2098149;28;45137;-76
2021/09/09 04:36:11;;;;;;;;;;;;;;;;;;2114158;28;45469;-77
2021/09/09 04:37:13;;;;;;;;;;;;;;;;;;2105932;28;44925;-76
2021/09/09 04:38:14;;;;;;;;;;;;;;;;;;2105904;28;45646;-76
2021/09/09 04:39:16;;;;;;;;;;;;;;;;;;2105715;28;45682;-76
2021/09/09 04:40:17;;;;;;;;;;;;;;;;;;2106155;28;43227;-74
2021/09/09 04:41:18;;;;;;;;;;;;;;;;;;2105990;28;46521;-74
2021/09/09 04:42:20;;;;;;;;;;;;;;;;;;2097679;28;43284;-74
2021/09/09 04:43:21;;;;;;;;;;;;;;;;;;2105637;28;44123;-74
2021/09/09 04:44:22;;;;;;;;;;;;;;;;;;2105581;28;43235;-74
2021/09/09 04:45:25;;;;;;;;;;;;;;;;;;2089010;28;44300;-73
2021/09/09 04:46:26;;;;;;;;;;;;;;;;;;2097519;28;44438;-75
2021/09/09 04:47:28;;;;;;;;;;;;;;;;;;2106647;28;45617;-75
2021/09/09 04:48:29;;;;;;;;;;;;;;;;;;2113988;28;46487;-75
2021/09/09 04:49:31;;;;;;;;;;;;;;;;;;2097541;28;45333;-74
2021/09/09 04:50:32;;;;;;;;;;;;;;;;;;2088909;28;46768;-74
2021/09/09 04:51:34;;;;;;;;;;;;;;;;;;2097431;28;45411;-74
2021/09/09 04:52:35;;;;;;;;;;;;;;;;;;2097452;28;45773;-75
2021/09/09 04:53:37;;;;;;;;;;;;;;;;;;2097719;28;46464;-75
2021/09/09 04:54:38;;;;;;;;;;;;;;;;;;2096942;28;45473;-75
2021/09/09 04:55:39;;;;;;;;;;;;;;;;;;2089520;28;42412;-76
2021/09/09 04:56:41;;;;;;;;;;;;;;;;;;2106092;28;45266;-76
2021/09/09 04:57:42;;;;;;;;;;;;;;;;;;2105637;28;43497;-75
2021/09/09 04:58:44;;;;;;;;;;;;;;;;;;2105825;28;44427;-76
2021/09/09 04:59:45;;;;;;;;;;;;;;;;;;2105550;28;45629;-75
2021/09/09 05:00:46;;;;;;;;;;;;;;;;;;2097281;28;46361;-75
2021/09/09 05:01:48;;;;;;;;;;;;;;;;;;2097454;28;47161;-74
2021/09/09 05:02:49;;;;;;;;;;;;;;;;;;2097862;28;46821;-72
2021/09/09 05:03:51;;;;;;;;;;;;;;;;;;2098322;28;45715;-71
2021/09/09 05:04:53;;;;;;;;;;;;;;;;;;2097491;28;45844;-74
2021/09/09 05:05:54;;;;;;;;;;;;;;;;;;2106411;28;46973;-73
2021/09/09 05:06:55;;;;;;;;;;;;;;;;;;2105552;28;44784;-73
2021/09/09 05:07:57;;;;;;;;;;;;;;;;;;2089784;28;46990;-72
2021/09/09 05:08:58;;;;;;;;;;;;;;;;;;2089648;28;46255;-72
2021/09/09 05:10:01;;;;;;;;;;;;;;;;;;2089279;28;45773;-70
2021/09/09 05:11:02;;;;;;;;;;;;;;;;;;2089512;28;44904;-68
2021/09/09 05:12:04;;;;;;;;;;;;;;;;;;2097527;28;46970;-68
2021/09/09 05:13:05;;;;;;;;;;;;;;;;;;2097691;28;44943;-69
2021/09/09 05:14:07;;;;;;;;;;;;;;;;;;2088969;28;45945;-70
2021/09/09 05:15:09;;;;;;;;;;;;;;;;;;2097638;28;45777;-68
2021/09/09 05:16:10;;;;;;;;;;;;;;;;;;2097337;28;47323;-69
2021/09/09 05:17:12;;;;;;;;;;;;;;;;;;2097603;28;44589;-69
2021/09/09 05:18:13;;;;;;;;;;;;;;;;;;2094701;28;45097;-68
2021/09/09 05:19:15;;;;;;;;;;;;;;;;;;2088957;28;45896;-68
2021/09/09 05:20:16;;;;;;;;;;;;;;;;;;2096403;28;46045;-70
2021/09/09 05:21:18;;;;;;;;;;;;;;;;;;2097831;28;45871;-69
2021/09/09 05:22:19;;;;;;;;;;;;;;;;;;2096752;28;47093;-69
2021/09/09 05:23:21;;;;;;;;;;;;;;;;;;2105221;28;46186;-69
2021/09/09 05:24:22;;;;;;;;;;;;;;;;;;2104992;28;47220;-68
2021/09/09 05:25:23;;;;;;;;;;;;;;;;;;2097015;28;44176;-71
2021/09/09 05:26:25;;;;;;;;;;;;;;;;;;2097106;28;42883;-69
2021/09/09 05:27:26;;;;;;;;;;;;;;;;;;2097075;28;45690;-67
2021/09/09 05:28:28;;;;;;;;;;;;;;;;;;2096652;28;46355;-70
2021/09/09 05:29:30;;;;;;;;;;;;;;;;;;2088667;28;45372;-70
2021/09/09 05:30:31;;;;;;;;;;;;;;;;;;2089021;28;43906;-70
2021/09/09 05:31:33;;;;;;;;;;;;;;;;;;2088922;28;45325;-70
2021/09/09 05:32:34;;;;;;;;;;;;;;;;;;2096509;28;44294;-70
2021/09/09 05:33:36;;;;;;;;;;;;;;;;;;2097453;28;45150;-70
2021/09/09 05:34:37;;;;;;;;;;;;;;;;;;2096173;28;45292;-69
2021/09/09 05:35:40;;;;;;;;;;;;;;;;;;2097125;28;44866;-70
2021/09/09 05:36:41;;;;;;;;;;;;;;;;;;2097572;28;43161;-70
2021/09/09 05:37:43;;;;;;;;;;;;;;;;;;2097050;28;42846;-70
2021/09/09 05:38:44;;;;;;;;;;;;;;;;;;2096635;28;43136;-70
2021/09/09 05:39:46;;;;;;;;;;;;;;;;;;2097179;28;45477;-70
2021/09/09 05:40:49;;;;;;;;;;;;;;;;;;2096982;28;45300;-70
2021/09/09 05:41:51;;;;;;;;;;;;;;;;;;2096970;28;44032;-70
2021/09/09 05:42:53;;;;;;;;;;;;;;;;;;2097592;28;42569;-69
2021/09/09 05:43:54;;;;;;;;;;;;;;;;;;2096633;28;43834;-69
2021/09/09 05:44:56;;;;;;;;;;;;;;;;;;2096903;28;46393;-70
2021/09/09 05:45:57;;;;;;;;;;;;;;;;;;2096862;28;44538;-70
2021/09/09 05:46:58;;;;;;;;;;;;;;;;;;2089090;28;44551;-70
2021/09/09 05:48:00;;;;;;;;;;;;;;;;;;2088616;28;46618;-70
2021/09/09 05:49:02;;;;;;;;;;;;;;;;;;2096862;28;46816;-69
2021/09/09 05:50:03;;;;;;;;;;;;;;;;;;2096965;28;46911;-70
2021/09/09 05:51:07;;;;;;;;;;;;;;;;;;2097580;28;44898;-70
2021/09/09 05:52:09;;;;;;;;;;;;;;;;;;2105373;28;45231;-70
2021/09/09 05:53:10;;;;;;;;;;;;;;;;;;2096963;28;46794;-70
2021/09/09 05:54:12;;;;;;;;;;;;;;;;;;2096453;28;47991;-70
2021/09/09 05:55:13;;;;;;;;;;;;;;;;;;2096353;28;45467;-71
2021/09/09 05:56:15;;;;;;;;;;;;;;;;;;2097196;28;45412;-71
2021/09/09 05:57:16;;;;;;;;;;;;;;;;;;2097009;28;44019;-71
2021/09/09 05:58:18;;;;;;;;;;;;;;;;;;2096835;28;45661;-70
2021/09/09 05:59:19;;;;;;;;;;;;;;;;;;2096840;28;46547;-71
2021/09/09 06:00:21;;;;;;;;;;;;;;;;;;2088847;28;45221;-71
2021/09/09 06:01:24;;;;;;;;;;;;;;;;;;2096488;28;44270;-69
2021/09/09 06:02:27;;;;;;;;;;;;;;;;;;2088984;28;45411;-70
2021/09/09 06:03:30;;;;;;;;;;;;;;;;;;2096800;28;43992;-74
2021/09/09 06:04:34;;;;;;;;;;;;;;;;;;2096912;28;45427;-74
2021/09/09 06:05:37;;;;;;;;;;;;;;;;;;2096820;28;45461;-73
2021/09/09 06:06:39;;;;;;;;;;;;;;;;;;2096920;28;46761;-75
2021/09/09 06:07:40;;;;;;;;;;;;;;;;;;2096654;28;45345;-73
2021/09/09 06:08:43;;;;;;;;;;;;;;;;;;2096698;28;45727;-74
2021/09/09 06:09:44;;;;;;;;;;;;;;;;;;2096494;28;46001;-73
2021/09/09 06:10:46;;;;;;;;;;;;;;;;;;2096923;28;46941;-73
2021/09/09 06:11:48;;;;;;;;;;;;;;;;;;2096828;28;46951;-73
2021/09/09 06:12:49;;;;;;;;;;;;;;;;;;2097556;28;47074;-73
2021/09/09 06:13:51;;;;;;;;;;;;;;;;;;2096935;28;45674;-73
2021/09/09 06:14:52;;;;;;;;;;;;;;;;;;2088069;28;45724;-73
2021/09/09 06:15:54;;;;;;;;;;;;;;;;;;2096530;28;47270;-73
2021/09/09 06:16:55;;;;;;;;;;;;;;;;;;2096658;28;45761;-74
2021/09/09 06:17:57;;;;;;;;;;;;;;;;;;2096696;28;45876;-74
2021/09/09 06:18:59;;;;;;;;;;;;;;;;;;2096706;28;46110;-73
2021/09/09 06:20:00;;;;;;;;;;;;;;;;;;2096901;28;46980;-73
2021/09/09 06:21:02;;;;;;;;;;;;;;;;;;2096183;28;47643;-73
2021/09/09 06:22:03;;;;;;;;;;;;;;;;;;2096665;28;47351;-73
2021/09/09 06:23:05;;;;;;;;;;;;;;;;;;2096866;28;45874;-74
2021/09/09 06:24:07;;;;;;;;;;;;;;;;;;2104884;28;44402;-74
2021/09/09 06:25:09;;;;;;;;;;;;;;;;;;2105058;28;46248;-74
2021/09/09 06:26:10;;;;;;;;;;;;;;;;;;2096788;28;47417;-74
2021/09/09 06:27:12;;;;;;;;;;;;;;;;;;2096789;28;44550;-74
2021/09/09 06:28:13;;;;;;;;;;;;;;;;;;2096669;28;45866;-74
2021/09/09 06:29:15;;;;;;;;;;;;;;;;;;2096637;28;45886;-74
2021/09/09 06:30:17;;;;;;;;;;;;;;;;;;2096850;28;46973;-74
2021/09/09 06:31:18;;;;;;;;;;;;;;;;;;2097229;28;45889;-73
2021/09/09 06:32:19;;;;;;;;;;;;;;;;;;2096401;28;45645;-74
2021/09/09 06:33:21;;;;;;;;;;;;;;;;;;2096388;28;46765;-73
2021/09/09 06:34:22;;;;;;;;;;;;;;;;;;2097020;28;43979;-73
2021/09/09 06:35:24;;;;;;;;;;;;;;;;;;2088877;28;44258;-74
2021/09/09 06:36:26;;;;;;;;;;;;;;;;;;2096706;28;46311;-74
2021/09/09 06:37:27;;;;;;;;;;;;;;;;;;2096732;28;45161;-74
2021/09/09 06:38:29;;;;;;;;;;;;;;;;;;2096709;28;43083;-73
2021/09/09 06:39:30;;;;;;;;;;;;;;;;;;2096727;28;45453;-74
2021/09/09 06:40:32;;;;;;;;;;;;;;;;;;2096695;28;45505;-74
2021/09/09 06:41:33;;;;;;;;;;;;;;;;;;2105072;28;44094;-72
2021/09/09 06:42:35;;;;;;;;;;;;;;;;;;2096700;28;46377;-74
2021/09/09 06:43:36;;;;;;;;;;;;;;;;;;2088055;28;45935;-74
2021/09/09 06:44:38;;;;;;;;;;;;;;;;;;2088875;28;45049;-73
2021/09/09 06:45:39;;;;;;;;;;;;;;;;;;2096705;28;45158;-73
2021/09/09 06:46:42;;;;;;;;;;;;;;;;;;2096368;28;44438;-74
2021/09/09 06:47:43;;;;;;;;;;;;;;;;;;2096381;28;46384;-72
2021/09/09 06:48:44;;;;;;;;;;;;;;;;;;2105182;28;45800;-72
2021/09/09 06:49:46;;;;;;;;;;;;;;;;;;2105005;28;46354;-72
2021/09/09 06:50:47;;;;;;;;;;;;;;;;;;2097061;28;45360;-73
2021/09/09 06:51:49;;;;;;;;;;;;;;;;;;2096710;28;43918;-73
2021/09/09 06:52:50;;;;;;;;;;;;;;;;;;2097046;28;43728;-73
2021/09/09 06:53:51;;;;;;;;;;;;;;;;;;2096452;28;44459;-73
2021/09/09 06:54:53;;;;;;;;;;;;;;;;;;2096691;28;43887;-73
2021/09/09 06:55:54;;;;;;;;;;;;;;;;;;2096795;28;46440;-73
2021/09/09 06:56:56;;;;;;;;;;;;;;;;;;2098656;28;45331;-73
2021/09/09 06:57:58;;;;;;;;;;;;;;;;;;2097805;28;45590;-73
2021/09/09 06:58:59;;;;;;;;;;;;;;;;;;2089484;28;44145;-74
2021/09/09 07:00:01;;;;;;;;;;;;;;;;;;2098228;28;43199;-74
2021/09/09 07:01:02;;;;;;;;;;;;;;;;;;2098135;28;47068;-74